Paula Ruble — WDF2276 — position and weather

sailwx.info

Track history (hours):
 
Tides and Currents Weather Stations Pressure Air Temp Water Temp Dewpoint Dewpoint Depression Visibility Wind Speed Wind Dir Waves Ship Positions

Paula Ruble

Owner: Crounse Corporation, Maysville, KY. More information available from US FCC via Universal Licensing System and Coast Guard Vessel Documentation Center.

Last reported at 2015-Aug-31 08:06 UTC. Time now 2015-Sep-01 10:12 UTC.
Position N 38°42' W 085°08'.

Length 42 m.

Type: Tow > 200 m length. MMSI: 367426860.

Date/timePositionNaut miles runAvg speedWind from/ knotsBaromVisibWave heightAir tempDewpointWater temp
2015-Aug-31 08:06N 38°42' W 085°08'18 3.1
2015-Aug-31 02:04N 38°55' W 084°52'7 4.7
2015-Aug-31 00:33N 39°03' W 084°53'5 5.0
2015-Aug-30 23:30N 39°06' W 084°49'5 4.8
2015-Aug-30 22:33N 39°08' W 084°43'6 5.5
2015-Aug-30 21:33N 39°05' W 084°38'5 5.0
2015-Aug-30 20:34N 39°06' W 084°32'4 4.2
2015-Aug-30 19:32N 39°06' W 084°26'5 4.8
2015-Aug-30 18:33N 39°02' W 084°22'5 5.3
2015-Aug-30 17:33N 38°58' W 084°18'6 5.8
2015-Aug-30 16:33N 38°53' W 084°14'5 5.4
2015-Aug-30 15:33N 38°48' W 084°12'3 3.1
2015-Aug-30 14:32N 38°47' W 084°08'11 5.6
2015-Aug-30 12:33N 38°46' W 083°54'5 4.9
2015-Aug-30 11:33N 38°42' W 083°50'5 2.3
2015-Aug-30 09:31N 38°46' W 083°54'7 7.1
2015-Aug-30 08:32N 38°46' W 084°02'6 6.5
2015-Aug-30 07:33N 38°48' W 084°10'5 4.5
2015-Aug-30 06:32N 38°51' W 084°14'2 1.7
2015-Aug-30 05:33N 38°53' W 084°14'1 0.9
2015-Aug-30 04:33N 38°52' W 084°14'0 0.4
2015-Aug-30 03:34N 38°52' W 084°14'3 2.7
2015-Aug-30 02:34N 38°49' W 084°14'3 2.8
2015-Aug-30 01:32N 38°48' W 084°10'1 1.0
2015-Aug-30 00:32N 38°48' W 084°09'0 0.0
2015-Aug-29 23:31N 38°48' W 084°09'0 0.0
2015-Aug-29 22:32N 38°48' W 084°09'2 1.9
2015-Aug-29 21:31N 38°47' W 084°07'9 4.4
2015-Aug-29 19:33N 38°46' W 083°56'  
2015-Aug-23 15:33N 38°33' W 082°42'55 2.8
2015-Aug-22 19:33N 38°45' W 083°51'9 4.2
2015-Aug-22 17:22N 38°46' W 084°03'4 4.6
2015-Aug-22 16:33N 38°47' W 084°08'2 2.4
2015-Aug-22 15:32N 38°48' W 084°11'2 1.8
2015-Aug-22 14:33N 38°48' W 084°13'1 0.7
2015-Aug-22 13:34N 38°49' W 084°13'0 0.0
2015-Aug-22 12:33N 38°49' W 084°13'0 0.0
2015-Aug-22 11:32N 38°49' W 084°13'0 0.0
2015-Aug-22 10:32N 38°49' W 084°13'0 0.0
2015-Aug-22 09:32N 38°49' W 084°13'0 0.0
2015-Aug-22 08:34N 38°49' W 084°13'3 3.4
2015-Aug-22 07:33N 38°52' W 084°14'4 3.9
2015-Aug-22 06:33N 38°56' W 084°16'4 3.9
2015-Aug-22 05:33N 38°59' W 084°18'4 3.9
2015-Aug-22 04:32N 39°02' W 084°21'4 4.0
2015-Aug-22 03:33N 39°04' W 084°26'4 3.8
2015-Aug-22 02:33N 39°07' W 084°28'4 3.7
2015-Aug-22 01:33N 39°06' W 084°32'4 4.1
2015-Aug-22 00:34N 39°04' W 084°37'4 4.4
2015-Aug-21 23:33N 39°07' W 084°42'4 3.5
2015-Aug-21 22:33N 39°08' W 084°46'24 2.6
2015-Aug-21 13:20N 38°46' W 084°60'7 3.6
2015-Aug-21 11:19N 38°42' W 085°08'  
Track history (hours):
 
Tides and Currents Weather Stations Pressure Air Temp Water Temp Dewpoint Dewpoint Depression Visibility Wind Speed Wind Dir Waves Ship Positions

Paula Ruble

Owner: Crounse Corporation, Maysville, KY. More information available from US FCC via Universal Licensing System and Coast Guard Vessel Documentation Center.

Last reported at 2015-Aug-31 08:06 UTC. Time now 2015-Sep-01 10:12 UTC.
Position N 38°42' W 085°08'.

Length 42 m.

Type: Tow > 200 m length. MMSI: 367426860.

Date/timePositionNaut miles runAvg speedWind from/ knotsBaromVisibWave heightAir tempDewpointWater temp
2015-Aug-31 08:06N 38°42' W 085°08'18 3.1
2015-Aug-31 02:04N 38°55' W 084°52'7 4.7
2015-Aug-31 00:33N 39°03' W 084°53'5 5.0
2015-Aug-30 23:30N 39°06' W 084°49'5 4.8
2015-Aug-30 22:33N 39°08' W 084°43'6 5.5
2015-Aug-30 21:33N 39°05' W 084°38'5 5.0
2015-Aug-30 20:34N 39°06' W 084°32'4 4.2
2015-Aug-30 19:32N 39°06' W 084°26'5 4.8
2015-Aug-30 18:33N 39°02' W 084°22'5 5.3
2015-Aug-30 17:33N 38°58' W 084°18'6 5.8
2015-Aug-30 16:33N 38°53' W 084°14'5 5.4
2015-Aug-30 15:33N 38°48' W 084°12'3 3.1
2015-Aug-30 14:32N 38°47' W 084°08'11 5.6
2015-Aug-30 12:33N 38°46' W 083°54'5 4.9
2015-Aug-30 11:33N 38°42' W 083°50'5 2.3
2015-Aug-30 09:31N 38°46' W 083°54'7 7.1
2015-Aug-30 08:32N 38°46' W 084°02'6 6.5
2015-Aug-30 07:33N 38°48' W 084°10'5 4.5
2015-Aug-30 06:32N 38°51' W 084°14'2 1.7
2015-Aug-30 05:33N 38°53' W 084°14'1 0.9
2015-Aug-30 04:33N 38°52' W 084°14'0 0.4
2015-Aug-30 03:34N 38°52' W 084°14'3 2.7
2015-Aug-30 02:34N 38°49' W 084°14'3 2.8
2015-Aug-30 01:32N 38°48' W 084°10'1 1.0
2015-Aug-30 00:32N 38°48' W 084°09'0 0.0
2015-Aug-29 23:31N 38°48' W 084°09'0 0.0
2015-Aug-29 22:32N 38°48' W 084°09'2 1.9
2015-Aug-29 21:31N 38°47' W 084°07'9 4.4
2015-Aug-29 19:33N 38°46' W 083°56'  
2015-Aug-23 15:33N 38°33' W 082°42'55 2.8
2015-Aug-22 19:33N 38°45' W 083°51'9 4.2
2015-Aug-22 17:22N 38°46' W 084°03'4 4.6
2015-Aug-22 16:33N 38°47' W 084°08'2 2.4
2015-Aug-22 15:32N 38°48' W 084°11'2 1.8
2015-Aug-22 14:33N 38°48' W 084°13'1 0.7
2015-Aug-22 13:34N 38°49' W 084°13'0 0.0
2015-Aug-22 12:33N 38°49' W 084°13'0 0.0
2015-Aug-22 11:32N 38°49' W 084°13'0 0.0
2015-Aug-22 10:32N 38°49' W 084°13'0 0.0
2015-Aug-22 09:32N 38°49' W 084°13'0 0.0
2015-Aug-22 08:34N 38°49' W 084°13'3 3.4
2015-Aug-22 07:33N 38°52' W 084°14'4 3.9
2015-Aug-22 06:33N 38°56' W 084°16'4 3.9
2015-Aug-22 05:33N 38°59' W 084°18'4 3.9
2015-Aug-22 04:32N 39°02' W 084°21'4 4.0
2015-Aug-22 03:33N 39°04' W 084°26'4 3.8
2015-Aug-22 02:33N 39°07' W 084°28'4 3.7
2015-Aug-22 01:33N 39°06' W 084°32'4 4.1
2015-Aug-22 00:34N 39°04' W 084°37'4 4.4
2015-Aug-21 23:33N 39°07' W 084°42'4 3.5
2015-Aug-21 22:33N 39°08' W 084°46'24 2.6
2015-Aug-21 13:20N 38°46' W 084°60'7 3.6
2015-Aug-21 11:19N 38°42' W 085°08'  

Dump ship's entire track history